KEND/END METAR and TAF weather

Enter ICAO airport designator
Station Type Date Time Source
KEND METAR 2019/06/18 15:56 UTC NOAA

KEND 181556Z AUTO 15006KT 10SM SCT130 SCT200 28/20 A2993 RMK AO2 SLP124 T02760201 $


Station Type Date Time Source
KEND Decoded METAR 2019/06/18 15:56 UTC NOAA

Vance Air Force Base / Enid, OK, United States (KEND) 36-20N 097-55W
Jun 18, 2019 - 11:56 AM EDT / 2019.06.18 1556 UTC
Wind: from the SSE (150 degrees) at 7 MPH (6 KT):0
Visibility: 10 mile(s):0
Sky conditions: partly cloudy
Temperature: 81.7 F (27.6 C)
Dew Point: 68.2 F (20.1 C)
Relative Humidity: 63%
Pressure (altimeter): 29.93 in. Hg (1013 hPa)
ob: KEND 181556Z AUTO 15006KT 10SM SCT130 SCT200 28/20 A2993 RMK AO2 SLP124 T02760201
cycle: 16

Station Type Date Time Source
KEND TAF 2019/06/18 10:27 UTC NOAA

TAF TAF KEND 181000Z 1810/1916 17006KT 9999 BKN120 QNH2978INS
BECMG 1901/1902 17006KT 8000 -SHRA SCT018 BKN040 QNH2976INS
TEMPO 1902/1909 VRB20G25KT 8000 -TSRA BKN018CB
BECMG 1911/1912 34006KT 8000 BR BKN008 QNH2980INS TX29/1821Z TN17/1812Z

Example: see airport list